createdAt,value
2023-04-06T00:00:39.464Z,1016.79
2023-04-06T00:02:36.243Z,1016.79
2023-04-06T00:04:35.684Z,1016.79
2023-04-06T00:06:36.966Z,1016.79
2023-04-06T00:08:35.374Z,1016.65
2023-04-06T00:10:35.979Z,1016.65
2023-04-06T00:12:35.534Z,1016.65
2023-04-06T00:14:35.121Z,1016.65
2023-04-06T00:16:36.657Z,1016.63
2023-04-06T00:18:35.581Z,1016.63
2023-04-06T00:20:35.896Z,1016.49
2023-04-06T00:22:35.354Z,1016.49
2023-04-06T00:24:35.778Z,1016.5
2023-04-06T00:26:35.291Z,1016.5
2023-04-06T00:28:35.727Z,1016.47
2023-04-06T00:30:35.285Z,1016.47
2023-04-06T00:32:36.115Z,1016.34
2023-04-06T00:34:35.232Z,1016.34
2023-04-06T00:36:35.962Z,1016.32
2023-04-06T00:38:35.212Z,1016.32
2023-04-06T00:40:35.965Z,1016.36
2023-04-06T00:42:35.467Z,1016.36
2023-04-06T00:44:34.965Z,1016.29
2023-04-06T00:46:35.820Z,1016.29
2023-04-06T00:48:35.990Z,1016.28
2023-04-06T00:50:35.428Z,1016.28
2023-04-06T00:52:35.969Z,1016.14
2023-04-06T00:54:35.350Z,1016.14
2023-04-06T00:56:35.715Z,1016.13
2023-04-06T00:58:35.430Z,1016.13
2023-04-06T01:00:38.740Z,1016.02
2023-04-06T01:02:35.640Z,1016.02
2023-04-06T01:04:35.153Z,1015.99
2023-04-06T01:06:35.511Z,1015.99
2023-04-06T01:08:35.041Z,1015.91
2023-04-06T01:10:35.800Z,1015.91
2023-04-06T01:12:35.150Z,1015.86
2023-04-06T01:14:35.836Z,1015.86
2023-04-06T01:16:35.462Z,1015.86
2023-04-06T01:18:35.958Z,1015.86
2023-04-06T01:20:35.385Z,1015.85
2023-04-06T01:22:34.948Z,1015.85
2023-04-06T01:24:35.536Z,1015.63
2023-04-06T01:26:35.931Z,1015.63
2023-04-06T01:28:35.477Z,1015.68
2023-04-06T01:30:36.002Z,1015.68
2023-04-06T01:32:35.310Z,1015.61
2023-04-06T01:34:35.884Z,1015.61
2023-04-06T01:36:35.677Z,1015.47
2023-04-06T01:38:35.065Z,1015.47
2023-04-06T01:40:35.466Z,1015.54
2023-04-06T01:42:35.866Z,1015.54
2023-04-06T01:44:35.383Z,1015.37
2023-04-06T01:46:36.151Z,1015.37
2023-04-06T01:48:35.556Z,1015.36
2023-04-06T01:50:36.040Z,1015.36
2023-04-06T01:52:35.456Z,1015.4
2023-04-06T01:54:35.118Z,1015.4
2023-04-06T01:56:35.657Z,1015.28
2023-04-06T01:58:35.108Z,1015.28
2023-04-06T02:00:38.914Z,1015.29
2023-04-06T02:02:35.960Z,1015.16
2023-04-06T02:04:34.964Z,1015.16
2023-04-06T02:06:35.598Z,1015.16
2023-04-06T02:08:35.196Z,1015.16
2023-04-06T02:10:35.572Z,1015.02
2023-04-06T02:12:35.060Z,1015.02
2023-04-06T02:14:35.598Z,1015.08
2023-04-06T02:16:35.556Z,1015.08
2023-04-06T02:18:35.958Z,1015
2023-04-06T02:20:35.313Z,1015
2023-04-06T02:22:35.855Z,1014.99
2023-04-06T02:24:35.498Z,1014.99
2023-04-06T02:26:35.969Z,1015.07
2023-04-06T02:28:35.338Z,1015.07
2023-04-06T02:30:35.818Z,1014.92
2023-04-06T02:32:35.534Z,1014.92
2023-04-06T02:34:35.706Z,1014.92
2023-04-06T02:36:35.404Z,1014.92
2023-04-06T02:38:35.594Z,1014.9
2023-04-06T02:40:35.268Z,1014.9
2023-04-06T02:42:35.777Z,1014.89
2023-04-06T02:44:35.266Z,1014.89
2023-04-06T02:46:36.122Z,1014.86
2023-04-06T02:48:36.002Z,1014.86
2023-04-06T02:50:35.264Z,1014.85
2023-04-06T02:52:35.825Z,1014.85
2023-04-06T02:54:35.178Z,1014.8
2023-04-06T02:56:35.586Z,1014.8
2023-04-06T02:58:35.066Z,1014.66
2023-04-06T03:00:38.757Z,1014.66
2023-04-06T03:02:35.702Z,1014.59
2023-04-06T03:04:35.917Z,1014.59
2023-04-06T03:06:35.292Z,1014.68
2023-04-06T03:08:35.780Z,1014.68
2023-04-06T03:10:35.354Z,1014.5
2023-04-06T03:12:35.800Z,1014.5
2023-04-06T03:14:35.101Z,1014.54
2023-04-06T03:16:35.851Z,1014.54
2023-04-06T03:18:35.446Z,1014.58
2023-04-06T03:20:35.779Z,1014.58
2023-04-06T03:22:35.077Z,1014.54
2023-04-06T03:24:35.490Z,1014.54
2023-04-06T03:26:34.957Z,1014.56
2023-04-06T03:28:35.476Z,1014.56
2023-04-06T03:30:36.100Z,1014.39
2023-04-06T03:32:35.429Z,1014.39
2023-04-06T03:34:35.822Z,1014.33
2023-04-06T03:36:35.153Z,1014.33
2023-04-06T03:38:35.732Z,1014.37
2023-04-06T03:40:35.345Z,1014.37
2023-04-06T03:42:35.695Z,1014.37
2023-04-06T03:44:34.965Z,1014.37
2023-04-06T03:46:35.806Z,1014.33
2023-04-06T03:48:35.192Z,1014.33
2023-04-06T03:50:35.656Z,1014.32
2023-04-06T03:52:35.136Z,1014.32
2023-04-06T03:54:35.329Z,1014.13
2023-04-06T03:56:38.593Z,1014.13
2023-04-06T03:58:35.320Z,1014.27
2023-04-06T04:00:39.100Z,1014.27
2023-04-06T04:02:36.228Z,1014.22
2023-04-06T04:04:35.382Z,1014.22
2023-04-06T04:06:35.486Z,1014.2
2023-04-06T04:08:35.930Z,1014.2
2023-04-06T04:10:35.581Z,1014.16
2023-04-06T04:12:34.938Z,1014.16
2023-04-06T04:14:35.579Z,1014.29
2023-04-06T04:16:36.136Z,1014.29
2023-04-06T04:18:35.293Z,1014.35
2023-04-06T04:20:35.831Z,1014.35
2023-04-06T04:22:35.292Z,1014.21
2023-04-06T04:24:35.676Z,1014.21
2023-04-06T04:26:35.252Z,1014.19
2023-04-06T04:28:35.763Z,1014.19
2023-04-06T04:30:35.278Z,1014.24
2023-04-06T04:32:36.219Z,1014.24
2023-04-06T04:34:35.173Z,1014.23
2023-04-06T04:36:35.883Z,1014.23
2023-04-06T04:38:35.284Z,1014.11
2023-04-06T04:40:35.776Z,1014.11
2023-04-06T04:42:35.154Z,1014.18
2023-04-06T04:44:35.780Z,1014.18
2023-04-06T04:46:35.549Z,1014.13
2023-04-06T04:48:35.922Z,1014.13
2023-04-06T04:50:35.267Z,1014.22
2023-04-06T04:52:35.852Z,1014.22
2023-04-06T04:54:35.210Z,1014.17
2023-04-06T04:56:35.679Z,1014.17
2023-04-06T04:58:35.161Z,1014.18
2023-04-06T05:00:40.762Z,1014.18
2023-04-06T05:04:35.406Z,1014.15
2023-04-06T05:06:36.409Z,1014.1
2023-04-06T05:08:35.929Z,1014.1
2023-04-06T05:10:35.418Z,1014.16
2023-04-06T05:12:35.875Z,1014.16
2023-04-06T05:14:35.933Z,1014.09
2023-04-06T05:16:35.923Z,1014.09
2023-04-06T05:18:36.093Z,1014.08
2023-04-06T05:20:35.661Z,1014.08
2023-04-06T05:22:35.864Z,1014.07
2023-04-06T05:24:35.188Z,1014.07
2023-04-06T05:26:35.675Z,1013.98
2023-04-06T05:28:35.257Z,1013.98
2023-04-06T05:30:35.758Z,1014.08
2023-04-06T05:32:35.437Z,1014.05
2023-04-06T05:34:36.204Z,1014.05
2023-04-06T05:36:37.688Z,1014.07
2023-04-06T05:38:35.831Z,1014.07
2023-04-06T05:40:35.405Z,1013.98
2023-04-06T05:42:35.969Z,1013.98
2023-04-06T05:44:35.646Z,1014.09
2023-04-06T05:46:35.584Z,1014.09
2023-04-06T05:48:35.853Z,1013.98
2023-04-06T05:50:35.272Z,1013.98
2023-04-06T05:52:36.002Z,1013.92
2023-04-06T05:54:35.572Z,1013.92
2023-04-06T05:56:35.879Z,1014
2023-04-06T05:58:35.383Z,1014
2023-04-06T06:00:38.683Z,1014.02
2023-04-06T06:02:36.061Z,1014.02
2023-04-06T06:04:35.127Z,1013.99
2023-04-06T06:06:35.655Z,1013.99
2023-04-06T06:08:35.805Z,1014.07
2023-04-06T06:10:35.336Z,1014.07
2023-04-06T06:12:37.397Z,1013.9
2023-04-06T06:14:35.462Z,1013.9
2023-04-06T06:16:36.098Z,1013.88
2023-04-06T06:18:35.588Z,1013.88
2023-04-06T06:20:35.983Z,1013.9
2023-04-06T06:22:35.273Z,1013.9
2023-04-06T06:24:35.666Z,1013.94
2023-04-06T06:26:35.361Z,1013.94
2023-04-06T06:28:35.775Z,1013.89
2023-04-06T06:30:35.281Z,1013.89
2023-04-06T06:32:35.688Z,1013.94
2023-04-06T06:34:35.462Z,1013.94
2023-04-06T06:36:35.605Z,1014.03
2023-04-06T06:38:35.465Z,1014.03
2023-04-06T06:40:35.632Z,1014.01
2023-04-06T06:42:37.338Z,1014.01
2023-04-06T06:44:35.603Z,1013.98
2023-04-06T06:46:35.626Z,1013.98
2023-04-06T06:48:35.843Z,1014.05
2023-04-06T06:50:35.181Z,1014.05
2023-04-06T06:52:35.607Z,1013.93
2023-04-06T06:54:35.056Z,1013.93
2023-04-06T06:56:35.520Z,1013.93
2023-04-06T06:58:35.863Z,1013.93
2023-04-06T07:00:39.127Z,1013.92
2023-04-06T07:02:36.113Z,1013.92
2023-04-06T07:04:35.612Z,1013.88
2023-04-06T07:08:35.549Z,1013.87
2023-04-06T07:10:35.750Z,1013.87
2023-04-06T07:12:35.983Z,1013.78
2023-04-06T07:14:35.628Z,1013.78
2023-04-06T07:16:35.342Z,1013.82
2023-04-06T07:18:36.370Z,1013.82
2023-04-06T07:20:35.562Z,1013.88
2023-04-06T07:22:35.678Z,1013.88
2023-04-06T07:24:35.063Z,1013.83
2023-04-06T07:28:35.048Z,1013.7
2023-04-06T07:30:37.009Z,1013.7
2023-04-06T07:32:35.606Z,1013.76
2023-04-06T07:34:35.619Z,1013.76
2023-04-06T07:36:35.168Z,1013.75
2023-04-06T07:38:35.669Z,1013.75
2023-04-06T07:40:35.148Z,1013.63
2023-04-06T07:42:36.099Z,1013.63
2023-04-06T07:44:35.274Z,1013.66
2023-04-06T07:46:35.985Z,1013.66
2023-04-06T07:48:35.321Z,1013.57
2023-04-06T07:50:35.177Z,1013.57
2023-04-06T07:52:37.029Z,1013.59
2023-04-06T07:54:35.433Z,1013.59
2023-04-06T07:56:35.857Z,1013.58
2023-04-06T07:58:35.225Z,1013.58
2023-04-06T08:00:38.830Z,1013.56
2023-04-06T08:02:35.278Z,1013.56
2023-04-06T08:04:36.413Z,1013.6
2023-04-06T08:06:35.282Z,1013.6
2023-04-06T08:08:35.758Z,1013.56
2023-04-06T08:10:35.372Z,1013.56
2023-04-06T08:12:35.810Z,1013.57
2023-04-06T08:14:35.460Z,1013.57
2023-04-06T08:16:36.186Z,1013.61
2023-04-06T08:18:35.398Z,1013.61
2023-04-06T08:20:35.925Z,1013.61
2023-04-06T08:22:35.345Z,1013.61
2023-04-06T08:24:35.784Z,1013.59
2023-04-06T08:26:35.114Z,1013.59
2023-04-06T08:28:35.752Z,1013.62
2023-04-06T08:30:35.287Z,1013.62
2023-04-06T08:32:35.903Z,1013.7
2023-04-06T08:34:37.208Z,1013.7
2023-04-06T08:36:35.940Z,1013.67
2023-04-06T08:38:35.272Z,1013.67
2023-04-06T08:40:35.936Z,1013.58
2023-04-06T08:42:35.499Z,1013.58
2023-04-06T08:44:35.052Z,1013.56
2023-04-06T08:46:35.668Z,1013.56
2023-04-06T08:50:35.511Z,1013.57
2023-04-06T08:52:35.896Z,1013.57
2023-04-06T08:56:35.846Z,1013.5
2023-04-06T08:58:48.738Z,1013.5
2023-04-06T09:00:39.538Z,1013.5
2023-04-06T09:02:36.566Z,1013.57
2023-04-06T09:04:37.374Z,1013.57
2023-04-06T09:06:35.952Z,1013.62
2023-04-06T09:08:35.104Z,1013.62
2023-04-06T09:10:35.611Z,1013.5
2023-04-06T09:12:35.118Z,1013.5
2023-04-06T09:14:35.637Z,1013.48
2023-04-06T09:16:36.116Z,1013.48
2023-04-06T09:18:35.292Z,1013.54
2023-04-06T09:20:35.766Z,1013.54
2023-04-06T09:24:35.993Z,1013.46
2023-04-06T09:26:35.182Z,1013.51
2023-04-06T09:28:35.776Z,1013.51
2023-04-06T09:30:35.302Z,1013.48
2023-04-06T09:32:36.078Z,1013.48
2023-04-06T09:34:35.263Z,1013.46
2023-04-06T09:36:36.058Z,1013.46
2023-04-06T09:38:35.346Z,1013.45
2023-04-06T09:40:35.972Z,1013.45
2023-04-06T09:42:35.489Z,1013.29
2023-04-06T09:44:35.957Z,1013.29
2023-04-06T09:46:46.448Z,1013.32
2023-04-06T09:48:37.848Z,1013.32
2023-04-06T09:50:35.291Z,1013.3
2023-04-06T09:52:35.682Z,1013.3
2023-04-06T09:54:35.836Z,1013.35
2023-04-06T09:56:35.568Z,1013.35
2023-04-06T09:58:35.885Z,1013.24
2023-04-06T10:00:39.353Z,1013.24
2023-04-06T10:02:35.459Z,1013.34
2023-04-06T10:04:36.846Z,1013.34
2023-04-06T10:06:35.524Z,1013.22
2023-04-06T10:08:35.847Z,1013.22
2023-04-06T10:10:35.346Z,1013.23
2023-04-06T10:12:35.671Z,1013.23
2023-04-06T10:14:35.087Z,1013.21
2023-04-06T10:16:35.911Z,1013.21
2023-04-06T10:18:35.059Z,1013.11
2023-04-06T10:20:35.648Z,1013.11
2023-04-06T10:22:35.941Z,1012.95
2023-04-06T10:24:35.394Z,1012.95
2023-04-06T10:26:35.858Z,1013.05
2023-04-06T10:28:35.412Z,1013.05
2023-04-06T10:30:35.885Z,1013.14
2023-04-06T10:32:35.555Z,1013.14
2023-04-06T10:34:35.706Z,1013.06
2023-04-06T10:36:36.208Z,1013.06
2023-04-06T10:38:35.942Z,1012.89
2023-04-06T10:40:35.862Z,1012.89
2023-04-06T10:42:35.464Z,1012.92
2023-04-06T10:44:35.815Z,1012.92
2023-04-06T10:46:35.377Z,1012.86
2023-04-06T10:48:35.588Z,1012.86
2023-04-06T10:50:35.127Z,1012.91
2023-04-06T10:52:35.647Z,1012.91
2023-04-06T10:54:35.983Z,1012.85
2023-04-06T10:56:35.244Z,1012.85
2023-04-06T10:58:36.293Z,1012.78
2023-04-06T11:01:00.731Z,1012.78
2023-04-06T11:02:35.580Z,1012.73
2023-04-06T11:04:36.209Z,1012.73
2023-04-06T11:06:35.300Z,1012.66
2023-04-06T11:08:35.964Z,1012.66
2023-04-06T11:10:50.571Z,1012.63
2023-04-06T11:12:35.691Z,1012.63
2023-04-06T11:14:35.179Z,1012.7
2023-04-06T11:16:35.798Z,1012.7
2023-04-06T11:18:35.482Z,1012.66
2023-04-06T11:20:35.816Z,1012.66
2023-04-06T11:22:35.288Z,1012.65
2023-04-06T11:24:35.807Z,1012.65
2023-04-06T11:26:35.339Z,1012.67
2023-04-06T11:28:36.073Z,1012.67
2023-04-06T11:30:35.581Z,1012.61
2023-04-06T11:32:35.928Z,1012.61
2023-04-06T11:34:35.341Z,1012.45
2023-04-06T11:36:39.224Z,1012.45
2023-04-06T11:38:35.074Z,1012.45
2023-04-06T11:40:35.721Z,1012.45
2023-04-06T11:42:35.037Z,1012.44
2023-04-06T11:44:35.236Z,1012.44
2023-04-06T11:46:36.129Z,1012.39
2023-04-06T11:48:37.922Z,1012.39
2023-04-06T11:50:36.149Z,1012.35
2023-04-06T11:52:35.472Z,1012.35
2023-04-06T11:54:35.774Z,1012.32
2023-04-06T11:56:35.334Z,1012.32
2023-04-06T11:58:35.712Z,1012.25
2023-04-06T12:00:38.396Z,1012.25
2023-04-06T12:02:35.555Z,1012.25
2023-04-06T12:04:36.567Z,1012.25
2023-04-06T12:06:35.595Z,1012.26
2023-04-06T12:08:38.000Z,1012.26
2023-04-06T12:10:36.175Z,1012.21
2023-04-06T12:12:35.176Z,1012.21
2023-04-06T12:14:35.739Z,1012.19
2023-04-06T12:16:35.560Z,1012.19
2023-04-06T12:18:35.869Z,1012.19
2023-04-06T12:20:50.077Z,1012.12
2023-04-06T12:22:35.775Z,1012.12
2023-04-06T12:24:35.328Z,1012.17
2023-04-06T12:26:36.104Z,1012.17
2023-04-06T12:28:35.272Z,1012.14
2023-04-06T12:30:35.948Z,1012.14
2023-04-06T12:32:35.479Z,1012.27
2023-04-06T12:34:35.897Z,1012.27
2023-04-06T12:36:35.257Z,1012.17
2023-04-06T12:38:35.739Z,1012.17
2023-04-06T12:40:35.215Z,1012.1
2023-04-06T12:42:35.661Z,1012.1
2023-04-06T12:44:38.028Z,1012.05
2023-04-06T12:46:35.880Z,1012.05
2023-04-06T12:48:35.233Z,1011.99
2023-04-06T12:50:35.908Z,1011.99
2023-04-06T12:52:35.515Z,1012.05
2023-04-06T12:54:35.900Z,1012.05
2023-04-06T12:56:35.312Z,1011.99
2023-04-06T12:58:35.742Z,1011.99
2023-04-06T13:00:41.890Z,1011.88
2023-04-06T13:02:35.216Z,1011.88
2023-04-06T13:04:35.634Z,1011.8
2023-04-06T13:06:34.999Z,1011.8
2023-04-06T13:08:35.516Z,1011.82
2023-04-06T13:10:35.262Z,1011.82
2023-04-06T13:12:35.773Z,1011.77
2023-04-06T13:14:35.189Z,1011.77
2023-04-06T13:16:36.257Z,1011.78
2023-04-06T13:18:35.415Z,1011.78
2023-04-06T13:20:35.718Z,1011.78
2023-04-06T13:22:35.150Z,1011.78
2023-04-06T13:24:38.117Z,1011.69
2023-04-06T13:26:35.370Z,1011.69
2023-04-06T13:28:36.441Z,1011.74
2023-04-06T13:30:37.680Z,1011.74
2023-04-06T13:32:35.459Z,1011.73
2023-04-06T13:34:35.778Z,1011.73
2023-04-06T13:36:35.305Z,1011.72
2023-04-06T13:38:35.700Z,1011.72
2023-04-06T13:40:35.306Z,1011.71
2023-04-06T13:42:37.883Z,1011.71
2023-04-06T13:44:35.311Z,1011.79
2023-04-06T13:46:36.481Z,1011.79
2023-04-06T13:48:35.569Z,1011.86
2023-04-06T13:50:35.895Z,1011.86
2023-04-06T13:52:35.361Z,1011.76
2023-04-06T13:54:35.773Z,1011.76
2023-04-06T13:56:35.240Z,1011.68
2023-04-06T13:58:35.777Z,1011.68
2023-04-06T14:00:42.093Z,1011.68
2023-04-06T14:02:36.204Z,1011.68
2023-04-06T14:04:35.636Z,1011.64
2023-04-06T14:06:54.562Z,1011.64
2023-04-06T14:08:35.237Z,1011.62
2023-04-06T14:10:35.964Z,1011.62
2023-04-06T14:12:35.476Z,1011.68
2023-04-06T14:14:35.805Z,1011.68
2023-04-06T14:16:35.532Z,1011.65
2023-04-06T14:18:35.109Z,1011.65
2023-04-06T14:20:35.702Z,1011.64
2023-04-06T14:22:35.297Z,1011.64
2023-04-06T14:24:35.517Z,1011.57
2023-04-06T14:26:35.023Z,1011.57
2023-04-06T14:28:35.497Z,1011.54
2023-04-06T14:30:35.991Z,1011.54
2023-04-06T14:32:35.579Z,1011.44
2023-04-06T14:34:35.841Z,1011.44
2023-04-06T14:36:35.688Z,1011.4
2023-04-06T14:38:34.993Z,1011.4
2023-04-06T14:40:35.456Z,1011.46
2023-04-06T14:42:35.728Z,1011.46
2023-04-06T14:44:35.413Z,1011.41
2023-04-06T14:46:35.878Z,1011.41
2023-04-06T14:48:35.568Z,1011.32
2023-04-06T14:50:35.936Z,1011.32
2023-04-06T14:52:35.118Z,1011.37
2023-04-06T14:54:35.761Z,1011.37
2023-04-06T14:56:35.172Z,1011.17
2023-04-06T14:58:35.882Z,1011.17
2023-04-06T15:00:38.561Z,1011.2
2023-04-06T15:02:36.044Z,1011.2
2023-04-06T15:04:36.429Z,1011.26
2023-04-06T15:06:35.491Z,1011.26
2023-04-06T15:08:35.976Z,1011.2
2023-04-06T15:10:35.448Z,1011.2
2023-04-06T15:12:35.819Z,1011.21
2023-04-06T15:14:35.310Z,1011.21
2023-04-06T15:16:36.323Z,1011.2
2023-04-06T15:18:35.253Z,1011.2
2023-04-06T15:20:35.581Z,1011.18
2023-04-06T15:22:36.018Z,1011.18
2023-04-06T15:24:35.254Z,1011.07
2023-04-06T15:26:35.814Z,1011.07
2023-04-06T15:28:35.566Z,1011.05
2023-04-06T15:30:35.779Z,1011.05
2023-04-06T15:34:35.622Z,1011.14
2023-04-06T15:36:35.310Z,1011.14
2023-04-06T15:38:35.456Z,1011.1
2023-04-06T15:40:35.629Z,1011.1
2023-04-06T15:42:35.777Z,1011.09
2023-04-06T15:44:35.251Z,1011.09
2023-04-06T15:46:37.805Z,1011.03
2023-04-06T15:48:35.398Z,1011.03
2023-04-06T15:50:35.917Z,1010.97
2023-04-06T15:52:35.298Z,1010.97
2023-04-06T15:54:35.799Z,1010.95
2023-04-06T15:56:35.288Z,1010.95
2023-04-06T15:58:35.729Z,1011.01
2023-04-06T16:00:38.344Z,1011.01
2023-04-06T16:02:36.606Z,1010.94
2023-04-06T16:04:36.148Z,1010.94
2023-04-06T16:06:38.653Z,1010.9
2023-04-06T16:08:35.207Z,1010.9
2023-04-06T16:10:35.982Z,1011.06
2023-04-06T16:12:35.238Z,1011.06
2023-04-06T16:14:35.525Z,1011.04
2023-04-06T16:16:36.100Z,1011.04
2023-04-06T16:18:36.603Z,1011
2023-04-06T16:20:35.951Z,1011
2023-04-06T16:22:35.070Z,1011.03
2023-04-06T16:24:35.550Z,1011.03
2023-04-06T16:26:35.977Z,1010.94
2023-04-06T16:28:35.246Z,1010.94
2023-04-06T16:30:35.841Z,1011.07
2023-04-06T16:32:35.669Z,1011.07
2023-04-06T16:34:35.717Z,1011.05
2023-04-06T16:36:36.076Z,1011.05
2023-04-06T16:38:35.879Z,1011.03
2023-04-06T16:40:35.232Z,1011.03
2023-04-06T16:42:36.756Z,1011.05
2023-04-06T16:44:35.029Z,1011.05
2023-04-06T16:46:35.509Z,1011
2023-04-06T16:48:37.156Z,1011
2023-04-06T16:52:36.214Z,1010.95
2023-04-06T16:56:35.601Z,1011.06
2023-04-06T17:00:38.835Z,1011.09
2023-04-06T17:04:36.403Z,1011.27
2023-04-06T17:08:35.068Z,1011.3
2023-04-06T17:12:35.100Z,1011.24
2023-04-06T17:16:36.813Z,1011.37
2023-04-06T17:20:35.588Z,1011.42
2023-04-06T17:24:35.422Z,1011.36
2023-04-06T17:28:35.077Z,1011.28
2023-04-06T17:32:35.299Z,1011.4
2023-04-06T17:36:35.620Z,1011.33
2023-04-06T17:40:35.659Z,1011.45
2023-04-06T17:44:35.687Z,1011.42
2023-04-06T17:48:35.931Z,1011.53
2023-04-06T17:52:35.787Z,1011.55
2023-04-06T17:56:35.753Z,1011.48
2023-04-06T18:00:39.270Z,1011.52
2023-04-06T18:04:35.798Z,1011.58
2023-04-06T18:08:35.708Z,1011.71
2023-04-06T18:12:35.757Z,1011.87
2023-04-06T18:16:35.429Z,1011.76
2023-04-06T18:20:38.099Z,1011.7
2023-04-06T18:24:55.102Z,1011.73
2023-04-06T18:28:35.476Z,1011.72
2023-04-06T18:32:35.621Z,1011.84
2023-04-06T18:36:35.570Z,1011.75
2023-04-06T18:40:35.835Z,1011.84
2023-04-06T18:44:35.805Z,1012.01
2023-04-06T18:48:35.554Z,1011.98
2023-04-06T18:52:35.571Z,1012.02
2023-04-06T18:56:35.329Z,1012.14
2023-04-06T19:00:39.096Z,1012.14
2023-04-06T19:04:36.840Z,1012.2
2023-04-06T19:08:35.961Z,1012.32
2023-04-06T19:12:37.595Z,1012.38
2023-04-06T19:16:36.178Z,1012.28
2023-04-06T19:20:35.851Z,1012.27
2023-04-06T19:24:36.140Z,1012.44
2023-04-06T19:28:35.032Z,1012.38
2023-04-06T19:32:35.750Z,1012.43
2023-04-06T19:36:35.581Z,1012.46
2023-04-06T19:40:35.513Z,1012.5
2023-04-06T19:44:36.157Z,1012.43
2023-04-06T19:48:35.979Z,1012.59
2023-04-06T19:52:35.682Z,1012.45
2023-04-06T19:56:35.678Z,1012.59
2023-04-06T20:00:39.906Z,1012.7
2023-04-06T20:04:36.549Z,1012.63
2023-04-06T20:08:35.782Z,1012.76
2023-04-06T20:12:35.969Z,1012.71
2023-04-06T20:16:36.170Z,1012.8
2023-04-06T20:20:35.140Z,1012.83
2023-04-06T20:24:35.617Z,1012.93
2023-04-06T20:28:35.740Z,1012.95
2023-04-06T20:32:36.175Z,1012.96
2023-04-06T20:36:35.977Z,1012.96
2023-04-06T20:40:35.066Z,1013.08
2023-04-06T20:44:35.132Z,1013.11
2023-04-06T20:48:35.534Z,1013.26
2023-04-06T20:52:35.582Z,1013.16
2023-04-06T20:56:35.486Z,1013.18
2023-04-06T21:00:39.202Z,1013.28
2023-04-06T21:04:38.569Z,1013.21
2023-04-06T21:08:35.571Z,1013.14
2023-04-06T21:12:35.843Z,1013.17
2023-04-06T21:16:35.744Z,1013.14
2023-04-06T21:20:35.501Z,1013.22
2023-04-06T21:24:35.395Z,1013.24
2023-04-06T21:28:35.638Z,1013.3
2023-04-06T21:32:35.936Z,1013.35
2023-04-06T21:36:35.851Z,1013.23
2023-04-06T21:40:36.089Z,1013.32
2023-04-06T21:44:35.870Z,1013.37
2023-04-06T21:48:35.297Z,1013.33
2023-04-06T21:52:35.407Z,1013.44
2023-04-06T21:56:35.473Z,1013.39
2023-04-06T22:00:36.338Z,1013.48
2023-04-06T22:04:36.390Z,1013.44
2023-04-06T22:08:48.239Z,1013.36
2023-04-06T22:12:35.419Z,1013.38
2023-04-06T22:16:35.775Z,1013.44
2023-04-06T22:20:35.546Z,1013.33
2023-04-06T22:24:35.709Z,1013.36
2023-04-06T22:28:35.865Z,1013.42
2023-04-06T22:32:36.335Z,1013.3
2023-04-06T22:36:35.241Z,1013.41
2023-04-06T22:40:35.287Z,1013.39
2023-04-06T22:44:35.598Z,1013.54
2023-04-06T22:48:35.936Z,1013.57
2023-04-06T22:52:36.176Z,1013.79
2023-04-06T22:56:35.193Z,1013.6
2023-04-06T23:00:39.297Z,1013.75
2023-04-06T23:04:36.384Z,1013.67
2023-04-06T23:08:35.663Z,1013.63
2023-04-06T23:12:35.849Z,1013.62
2023-04-06T23:16:35.617Z,1013.6
2023-04-06T23:20:35.449Z,1013.65
2023-04-06T23:24:36.464Z,1013.69
2023-04-06T23:28:35.939Z,1013.69
2023-04-06T23:32:36.467Z,1013.86
2023-04-06T23:36:35.935Z,1013.65
2023-04-06T23:40:35.414Z,1013.61
2023-04-06T23:44:35.399Z,1013.68
2023-04-06T23:48:35.316Z,1013.78
2023-04-06T23:52:35.728Z,1013.85
2023-04-06T23:56:35.633Z,1013.77
